Latest Weather Observations for Tindal

IDD60801

Issued at 9:31 pm CST Friday 28 April 2017 (issued every 30 minutes, with the page automatically refreshed every 10 minutes)

About weather observations | Map of weather stations | Latest weather observations for NT | Other Formats
Station Details ID: 014932 Name: TINDAL RAAF Lat: -14.52 Lon: 132.38 Height: 133.6 m
Data from the previous 72 hours. | See also: Recent months at Tindal
Date/Time
CST
Temp
°C
App
Temp
°C
Dew
Point
°C
Rel
Hum
%
Delta-T
°C
Wind Press
QNH
hPa
Press
MSL
hPa
Rain since
9am
mm
Dir  Spd
km/h
Gust
km/h
Spd
kts
Gust
kts
28/09:30pm 21.3 20.3 12.2 56 5.1 SE 9 11 5 6 1015.6 1014.8 0.0
28/09:00pm 21.0 19.8 12.7 59 4.7 SE 11 13 6 7 1015.3 1014.5 0.0
28/08:30pm 22.1 20.8 11.2 50 6.1 SE 9 13 5 7 1015.2 1014.4 0.0
28/08:00pm 22.2 20.8 12.2 53 5.7 SSE 11 13 6 7 1014.9 1014.1 0.0
28/07:30pm 22.7 21.7 12.3 52 5.9 SE 9 11 5 6 1014.6 1013.8 0.0
28/07:00pm 24.6 23.2 10.8 42 7.7 ESE 9 11 5 6 1014.4 1013.6 0.0
28/06:30pm 26.0 24.2 9.4 35 9.2 ESE 9 13 5 7 1014.0 1013.2 0.0
28/06:00pm 27.3 24.9 8.7 31 10.2 ESE 11 15 6 8 1013.6 1012.8 0.0
28/05:30pm 28.4 24.6 7.6 27 11.3 ESE 17 24 9 13 1013.3 1012.5 0.0
28/05:00pm 29.2 25.4 7.7 26 11.7 ESE 17 24 9 13 1013.2 1012.4 0.0
28/04:30pm 29.9 25.6 7.2 24 12.3 ESE 19 26 10 14 1013.2 1012.4 0.0
28/04:00pm 30.0 25.7 7.2 24 12.4 E 19 30 10 16 1013.0 1012.2 0.0
28/03:30pm 30.1 25.5 6.7 23 12.6 ESE 20 30 11 16 1013.0 1012.2 0.0
28/03:00pm 30.1 25.9 7.3 24 12.4 ESE 19 30 10 16 1013.3 1012.5 0.0
28/02:30pm 30.0 26.1 7.2 24 12.4 ESE 17 30 9 16 1013.6 1012.8 0.0
28/02:00pm 30.0 25.7 7.2 24 12.4 SE 19 26 10 14 1013.9 1013.1 0.0
28/01:30pm 29.4 24.8 6.7 24 12.2 ESE 20 32 11 17 1014.3 1013.5 0.0
28/01:00pm 28.7 24.0 6.1 24 12.0 ESE 20 32 11 17 1014.6 1013.8 0.0
28/12:30pm 28.4 22.5 5.9 24 11.8 ESE 26 35 14 19 1015.0 1014.2 0.0
28/12:00pm 27.8 22.7 6.0 25 11.4 ESE 22 35 12 19 1015.8 1014.9 0.0
28/11:30am 27.3 20.5 5.0 24 11.5 E 30 44 16 24 1016.2 1015.3 0.0
28/11:00am 26.7 20.3 5.1 25 11.1 ESE 28 39 15 21 1016.5 1015.6 0.0
28/10:30am 26.3 20.2 4.7 25 11.0 ESE 26 44 14 24 1016.7 1015.8 0.0
28/10:00am 25.1 18.5 4.3 26 10.4 ESE 28 44 15 24 1016.7 1015.8 0.0
28/09:30am 24.7 18.6 5.0 28 10.0 ESE 26 46 14 25 1016.8 1015.9 0.0
28/09:00am 23.7 17.8 5.6 31 9.2 ESE 26 33 14 18 1016.6 1015.7 0.0
28/08:30am 23.3 18.6 6.1 33 8.8 ESE 20 30 11 16 1016.5 1015.6 0.0
28/08:00am 21.4 18.2 8.3 43 6.9 SE 15 22 8 12 1016.4 1015.5 0.0
28/07:30am 20.6 18.4 9.5 49 6.0 SE 11 17 6 9 1016.3 1015.4 0.0
28/07:00am 19.1 17.8 11.4 61 4.2 SE 9 11 5 6 1015.8 1014.9 0.0
28/06:30am 18.7 17.9 11.8 64 3.8 SE 7 9 4 5 1015.3 1014.5 0.0
28/06:00am 18.4 16.9 11.9 66 3.6 SSE 11 11 6 6 1014.8 1014.0 0.0
28/05:30am 18.9 18.3 12.4 66 3.6 ESE 7 9 4 5 1014.2 1013.4 0.0
28/05:00am 20.4 19.0 10.8 54 5.3 ESE 9 11 5 6 1013.8 1013.0 0.0
28/04:30am 20.5 18.9 11.4 56 5.1 SE 11 15 6 8 1013.3 1012.5 0.0
28/04:00am 20.9 19.6 12.6 59 4.7 SE 11 17 6 9 1013.0 1012.2 0.0
28/03:30am 21.0 20.1 13.7 63 4.2 SSE 11 13 6 7 1012.7 1011.9 0.0
28/03:00am 21.6 20.6 14.5 64 4.2 SE 13 17 7 9 1012.6 1011.8 0.0
28/02:30am 21.9 20.7 15.0 65 4.1 SE 15 20 8 11 1012.5 1011.7 0.0
28/02:00am 21.6 20.1 15.4 68 3.7 SE 17 19 9 10 1012.7 1011.9 0.0
28/01:30am 21.6 21.0 15.7 69 3.6 SE 13 17 7 9 1013.3 1012.5 0.0
28/01:00am 21.5 21.0 15.8 70 3.4 SE 13 17 7 9 1013.8 1013.0 0.0
28/12:30am 21.8 21.3 15.9 69 3.6 SSE 13 15 7 8 1014.0 1013.2 0.0
28/12:00am 22.3 22.8 15.6 66 4.0 E 7 9 4 5 1014.1 1013.3 0.0
 
Date/Time
CST
Temp
°C
App
Temp
°C
Dew
Point
°C
Rel
Hum
%
Delta-T
°C
Wind Press
QNH
hPa
Press
MSL
hPa
Rain since
9am
mm
Dir  Spd
km/h
Gust
km/h
Spd
kts
Gust
kts
27/11:30pm 22.3 22.6 15.9 67 3.9 ESE 9 11 5 6 1014.2 1013.4 0.0
27/11:00pm 22.4 23.0 16.7 70 3.5 SE 9 11 5 6 1014.4 1013.6 0.0
27/10:30pm 22.8 23.8 16.8 69 3.7 ESE 7 9 4 5 1014.6 1013.8 0.0
27/10:00pm 24.5 25.1 15.7 58 5.4 ENE 7 9 4 5 1014.9 1014.1 0.0
27/09:30pm 25.0 25.5 15.6 56 5.7 ENE 7 9 4 5 1014.7 1013.9 0.0
27/09:00pm 25.7 26.1 15.4 53 6.3 E 7 9 4 5 1014.4 1013.6 0.0
27/08:30pm 26.4 26.5 15.4 50 6.7 ENE 9 11 5 6 1014.1 1013.3 0.0
27/08:00pm 26.9 26.5 15.3 49 7.1 ENE 11 15 6 8 1013.6 1012.8 0.0
27/07:30pm 27.1 26.8 15.5 49 7.1 ENE 11 13 6 7 1013.0 1012.2 0.0
27/07:00pm 27.3 27.2 16.0 50 7.0 E 11 17 6 9 1012.6 1011.8 0.0
27/06:30pm 27.3 28.2 16.6 52 6.7 E 7 11 4 6 1012.3 1011.5 0.0
27/06:00pm 28.0 28.4 16.3 49 7.3 E 9 11 5 6 1012.0 1011.2 0.0
27/05:30pm 28.6 28.4 15.8 45 7.9 E 11 15 6 8 1011.8 1011.0 0.0
27/05:00pm 29.0 28.2 15.2 43 8.5 E 13 22 7 12 1011.5 1010.7 0.0
27/04:30pm 29.3 27.1 14.3 40 9.1 E 19 26 10 14 1011.4 1010.6 0.0
27/04:00pm 30.0 26.5 14.5 38 9.5 ESE 26 35 14 19 1011.3 1010.4 0.0
27/03:30pm 30.4 27.3 14.5 38 9.7 ESE 24 35 13 19 1011.4 1010.6 0.0
27/03:00pm 30.1 26.9 14.2 38 9.7 ESE 24 35 13 19 1011.8 1011.0 0.0
27/02:30pm 29.7 26.4 13.9 38 9.5 ESE 24 35 13 19 1012.0 1011.2 0.0
27/02:00pm 30.4 28.1 14.1 37 9.9 ESE 19 28 10 15 1012.3 1011.5 0.0
27/01:30pm 29.5 26.1 13.7 38 9.5 ESE 24 37 13 20 1012.7 1011.9 0.0
27/01:00pm 29.8 27.0 14.4 39 9.4 ESE 22 33 12 18 1013.0 1012.2 0.0
27/12:30pm 29.6 26.6 13.8 38 9.5 ESE 22 32 12 17 1013.7 1012.9 0.0
27/12:00pm 28.6 24.6 12.9 38 9.3 ESE 26 35 14 19 1014.1 1013.3 0.0
27/11:30am 28.9 24.7 12.3 36 9.7 ESE 26 35 14 19 1014.6 1013.8 0.0
27/11:00am 28.0 24.2 13.5 41 8.6 SE 26 39 14 21 1015.0 1014.2 0.0
27/10:30am 27.7 24.1 12.9 40 8.7 ESE 24 32 13 17 1015.5 1014.7 0.0
27/10:00am 27.3 22.6 12.1 39 8.8 SE 28 39 15 21 1015.8 1014.9 0.0
27/09:30am 26.6 22.0 12.3 41 8.3 ESE 28 41 15 22 1015.5 1014.7 0.0
27/09:00am 25.8 21.5 13.3 46 7.4 ESE 28 41 15 22 1015.1 1014.3 0.0
27/08:30am 25.4 23.4 16.5 58 5.5 SE 22 32 12 17 1014.9 1014.1 0.0
27/08:00am 24.6 24.7 19.9 75 3.1 SE 19 28 10 15 1014.4 1013.6 0.0
27/07:30am 24.2 26.4 21.1 83 2.0 SSE 11 17 6 9 1014.2 1013.4 0.0
27/07:00am 24.2 26.0 21.1 83 2.0 SE 13 17 7 9 1013.6 1012.8 0.0
27/06:30am 24.0 26.1 20.9 83 2.0 SE 11 17 6 9 1012.9 1012.1 0.0
27/06:00am 23.4 25.3 20.5 84 1.9 SE 11 13 6 7 1012.3 1011.5 0.0
27/05:30am 23.4 25.1 20.2 82 2.1 SE 11 15 6 8 1011.9 1011.1 0.0
27/05:00am 23.8 25.1 20.1 80 2.4 SE 13 15 7 8 1011.7 1010.9 0.0
27/04:30am 23.9 26.3 20.0 79 2.5 E 7 11 4 6 1011.7 1010.9 0.0
27/04:00am 23.8 25.9 20.1 80 2.4 SE 9 11 5 6 1011.5 1010.7 0.0
27/03:30am 24.1 26.5 20.0 78 2.7 ESE 7 11 4 6 1011.5 1010.7 0.0
27/03:00am 23.9 25.9 20.0 79 2.5 SE 9 11 5 6 1011.5 1010.7 0.0
27/02:30am 24.5 26.0 19.8 75 3.0 ESE 11 15 6 8 1011.5 1010.7 0.0
27/02:00am 24.6 26.1 19.7 74 3.2 E 11 15 6 8 1011.2 1010.3 0.0
27/01:30am 25.0 25.6 19.4 71 3.6 E 15 19 8 10 1011.1 1010.2 0.0
27/01:00am 25.1 26.1 19.5 71 3.6 ESE 13 17 7 9 1011.2 1010.3 0.0
27/12:30am 25.5 26.8 19.4 69 3.9 ESE 11 13 6 7 1011.4 1010.6 0.0
27/12:00am 26.1 27.0 19.2 65 4.5 ESE 13 17 7 9 1011.5 1010.7 0.0
 
Date/Time
CST
Temp
°C
App
Temp
°C
Dew
Point
°C
Rel
Hum
%
Delta-T
°C
Wind Press
QNH
hPa
Press
MSL
hPa
Rain since
9am
mm
Dir  Spd
km/h
Gust
km/h
Spd
kts
Gust
kts
26/11:30pm 26.4 27.7 19.3 65 4.6 E 11 15 6 8 1012.0 1011.2 0.0
26/11:00pm 26.7 27.6 19.3 64 4.8 ESE 13 19 7 10 1012.2 1011.4 0.0
26/10:30pm 27.6 28.2 19.4 61 5.3 E 15 24 8 13 1012.5 1011.7 0.0
26/10:00pm 28.2 28.5 19.7 60 5.6 ENE 17 28 9 15 1012.7 1011.9 0.0
26/09:30pm 29.1 28.9 18.5 52 6.8 ENE 17 26 9 14 1012.8 1012.0 0.0
26/09:00pm 29.4 28.8 16.6 46 8.0 E 15 22 8 12 1012.7 1011.9 0.0
26/08:30pm 29.6 28.8 16.1 44 8.4 E 15 24 8 13 1012.5 1011.7 0.0
26/08:00pm 30.1 28.5 15.0 40 9.3 E 17 26 9 14 1012.1 1011.3 0.0
26/07:30pm 30.3 28.5 14.4 38 9.7 E 17 22 9 12 1011.6 1010.8 0.0
26/07:00pm 30.4 28.9 14.1 37 9.9 E 15 20 8 11 1011.1 1010.2 0.0
26/06:30pm 31.0 29.1 14.2 36 10.3 E 17 24 9 13 1010.7 1009.8 0.0
26/06:00pm 31.9 29.7 14.5 34 10.7 E 19 28 10 15 1010.3 1009.4 0.0
26/05:30pm 32.6 31.4 16.0 36 10.5 ESE 17 24 9 13 1009.7 1008.8 0.0
26/05:00pm 33.4 32.8 16.7 36 10.6 ESE 15 22 8 12 1009.4 1008.5 0.0
26/04:30pm 33.8 31.7 16.2 35 11.2 ESE 22 32 12 17 1009.2 1008.3 0.0
26/04:00pm 34.9 31.5 15.7 31 12.1 E 28 37 15 20 1009.0 1008.1 0.0
26/03:30pm 34.4 31.0 15.8 33 11.8 E 28 41 15 22 1009.3 1008.4 0.0
26/03:16pm 34.6 31.1 15.5 32 12.0 ESE 28 46 15 25 1009.3 1008.4 0.0
26/03:00pm 34.7 32.5 17.0 35 11.4 ESE 24 39 13 21 1009.3 1008.4 0.0
26/02:30pm 34.3 31.2 16.6 34 11.3 ESE 28 41 15 22 1009.5 1008.6 0.0
26/02:00pm 33.9 31.4 17.2 37 10.7 ESE 26 39 14 21 1009.9 1009.0 0.0
26/01:30pm 33.9 32.5 18.0 39 10.3 ESE 22 32 12 17 1010.3 1009.4 0.0
26/01:00pm 33.4 31.1 17.5 38 10.3 ESE 26 41 14 22 1010.9 1010.0 0.0
26/12:30pm 33.5 32.3 18.4 40 9.9 E 22 33 12 18 1011.5 1010.7 0.0
26/12:00pm 32.6 31.5 19.5 46 8.7 ESE 24 32 13 17 1012.0 1011.2 0.0
26/11:30am 32.4 31.6 19.3 46 8.6 ESE 22 33 12 18 1012.4 1011.6 0.0
26/11:00am 31.7 31.6 20.0 50 7.8 E 20 26 11 14 1012.7 1011.9 0.0
26/10:30am 30.3 29.8 20.8 56 6.4 E 24 35 13 19 1012.9 1012.1 0.0
26/10:00am 28.9 29.8 21.9 66 4.7 E 20 30 11 16 1013.0 1012.2 0.0
26/09:30am 27.4 28.7 22.4 74 3.4 E 19 26 10 14 1013.1 1012.3 0.0
26/09:13am 26.8 28.8 22.2 76 3.1 E 15 24 8 13 1013.0 1012.2 0.0
26/09:00am 25.9 27.9 22.2 80 2.5 ESE 15 20 8 11 1012.9 1012.1 0.0
26/08:32am 24.3 26.6 21.4 84 1.9 SE 11 15 6 8 1012.8 1012.0 0.0
26/08:30am 24.3 26.6 21.4 84 1.9 ESE 11 15 6 8 1012.8 1012.0 0.0
26/08:00am 22.9 25.2 20.6 87 1.5 ESE 9 13 5 7 1012.6 1011.8 0.0
26/07:30am 21.2 24.8 19.7 91 1.0 CALM 0 0 0 0 1012.3 1011.5 0.0
26/07:00am 20.4 22.4 19.2 93 0.8 SE 7 9 4 5 1011.9 1011.1 0.0
26/06:30am 20.8 22.2 19.6 93 0.8 SE 11 13 6 7 1011.4 1010.6 0.0
26/06:00am 20.6 22.7 19.3 92 0.8 ESE 7 11 4 6 1011.1 1010.2 0.0
26/05:30am 20.4 21.9 18.9 91 0.9 SSE 9 11 5 6 1010.8 1009.9 0.0
26/05:00am 20.6 22.1 18.9 90 1.1 SE 9 9 5 5 1011.0 1010.1 0.0
26/04:30am 21.1 22.3 19.0 88 1.3 SE 11 11 6 6 1010.9 1010.0 0.0
26/04:00am 21.3 22.8 19.0 87 1.5 SE 9 9 5 5 1010.9 1010.0 0.0
26/03:30am 21.5 23.1 19.2 87 1.5 SE 9 11 5 6 1011.2 1010.3 0.0
26/03:00am 21.4 22.9 19.0 86 1.5 SSE 9 9 5 5 1011.3 1010.4 0.0
26/02:30am 22.0 24.0 19.2 84 1.8 SSE 7 11 4 6 1011.5 1010.7 0.0
26/02:00am 22.0 23.6 19.2 84 1.8 SE 9 11 5 6 1011.6 1010.8 0.0
26/01:30am 22.2 23.9 19.4 84 1.8 SE 9 9 5 5 1011.8 1011.0 0.0
26/01:00am 22.3 24.5 19.5 84 1.8 SSE 7 9 4 5 1012.1 1011.3 0.0
26/12:30am 23.0 25.1 19.4 80 2.3 S 7 7 4 4 1012.5 1011.7 0.0
26/12:00am 23.4 25.7 19.5 79 2.5 S 6 7 3 4 1012.7 1011.9 0.0
 
Date/Time
CST
Temp
°C
App
Temp
°C
Dew
Point
°C
Rel
Hum
%
Delta-T
°C
Wind Press
QNH
hPa
Press
MSL
hPa
Rain since
9am
mm
Dir  Spd
km/h
Gust
km/h
Spd
kts
Gust
kts
25/11:30pm 23.4 25.7 19.5 79 2.5 S 6 9 3 5 1012.8 1012.0 0.0
25/11:00pm 23.7 25.7 19.2 76 2.9 SSE 7 7 4 4 1013.0 1012.2 0.0
25/10:30pm 23.8 25.9 19.3 76 2.9 SE 7 9 4 5 1012.9 1012.1 0.0
25/10:00pm 24.5 26.2 19.3 73 3.3 SSE 9 11 5 6 1012.9 1012.1 0.0

Other Formats:

Comma delimited format used in spreadsheet applications
http://www.bom.gov.au/fwo/IDD60801/IDD60801.94131.axf

JavaScript Object Notation format (JSON) in row-major order
http://www.bom.gov.au/fwo/IDD60801/IDD60801.94131.json